Time;durP1;ratioP1;P1;durP2;ratioP2;P2;SDS_P1;SDS_P2;PMS_P1;PMS_P2;Temp;Humidity;BMP_temperature;BMP_pressure;BME280_temperature;BME280_humidity;BME280_pressure;Samples;Min_cycle;Max_cycle;Signal;HPM_P1;HPM_P2
2023/03/02 00:00:46;;;;;;;26.35;10.80;;;;;;;;;;5011275;28;20018;-69
2023/03/02 00:03:13;;;;;;;26.67;11.95;;;;;;;;;;5005659;28;20025;-69
2023/03/02 00:05:39;;;;;;;25.13;9.95;;;;;;;;;;5007758;28;20105;-69
2023/03/02 00:08:06;;;;;;;25.90;10.70;;;;;;;;;;5006174;28;20024;-69
2023/03/02 00:10:31;;;;;;;24.92;10.20;;;;;;;;;;5011907;28;20033;-69
2023/03/02 00:12:57;;;;;;;25.70;10.50;;;;;;;;;;5008742;28;20022;-69
2023/03/02 00:15:22;;;;;;;24.92;10.00;;;;;;;;;;5009533;28;20108;-69
2023/03/02 00:17:47;;;;;;;26.17;10.68;;;;;;;;;;5005259;28;20030;-68
2023/03/02 00:20:12;;;;;;;27.48;10.57;;;;;;;;;;5006554;28;20103;-69
2023/03/02 00:22:38;;;;;;;34.38;11.23;;;;;;;;;;5006114;28;20492;-69
2023/03/02 00:25:03;;;;;;;25.25;11.35;;;;;;;;;;5009728;28;20044;-68
2023/03/02 00:27:29;;;;;;;29.00;10.60;;;;;;;;;;5006809;28;20130;-69
2023/03/02 00:29:57;;;;;;;33.22;10.70;;;;;;;;;;5009186;28;20084;-69
2023/03/02 00:32:22;;;;;;;26.65;10.38;;;;;;;;;;5005210;28;20043;-69
2023/03/02 00:34:48;;;;;;;25.98;10.45;;;;;;;;;;5005409;28;20462;-69
2023/03/02 00:37:13;;;;;;;21.48;9.57;;;;;;;;;;5002420;28;20052;-68
2023/03/02 00:39:38;;;;;;;20.67;9.27;;;;;;;;;;5009177;28;20060;-69
2023/03/02 00:42:03;;;;;;;24.48;10.85;;;;;;;;;;5006163;28;20537;-69
2023/03/02 00:44:28;;;;;;;25.90;10.63;;;;;;;;;;5004380;28;20026;-69
2023/03/02 00:46:53;;;;;;;26.77;9.95;;;;;;;;;;5005946;28;20039;-69
2023/03/02 00:49:19;;;;;;;32.07;10.50;;;;;;;;;;5008004;28;20483;-69
2023/03/02 00:51:44;;;;;;;24.05;10.57;;;;;;;;;;5008728;28;20249;-68
2023/03/02 00:54:09;;;;;;;21.67;10.63;;;;;;;;;;5007588;28;20018;-69
2023/03/02 00:56:34;;;;;;;26.45;10.73;;;;;;;;;;5005710;28;20537;-69
2023/03/02 00:59:03;;;;;;;22.50;9.00;;;;;;;;;;5008120;28;20021;-69
2023/03/02 01:01:28;;;;;;;24.60;9.68;;;;;;;;;;5008579;28;20402;-69
2023/03/02 01:03:53;;;;;;;21.13;9.07;;;;;;;;;;5008294;28;20025;-69
2023/03/02 01:06:20;;;;;;;25.07;8.40;;;;;;;;;;5005601;28;20030;-69
2023/03/02 01:08:45;;;;;;;29.05;9.85;;;;;;;;;;5005688;28;20264;-69
2023/03/02 01:11:13;;;;;;;22.77;9.35;;;;;;;;;;5008205;28;20044;-69
2023/03/02 01:13:38;;;;;;;20.35;10.27;;;;;;;;;;5009432;28;20014;-68
2023/03/02 01:16:04;;;;;;;24.27;9.60;;;;;;;;;;5006839;28;20037;-69
2023/03/02 01:18:29;;;;;;;25.13;9.35;;;;;;;;;;5008748;28;20029;-69
2023/03/02 01:21:23;;;;;;;20.73;9.07;;;;;;;;;;5003282;28;20018;-69
2023/03/02 01:23:50;;;;;;;28.90;9.68;;;;;;;;;;5000824;28;20103;-68
2023/03/02 01:26:15;;;;;;;25.25;9.10;;;;;;;;;;5006920;28;20021;-69
2023/03/02 01:28:40;;;;;;;22.35;9.45;;;;;;;;;;5005948;28;20152;-69
2023/03/02 01:31:06;;;;;;;21.80;8.55;;;;;;;;;;5005228;28;20017;-69
2023/03/02 01:33:31;;;;;;;22.42;9.18;;;;;;;;;;5002814;28;20514;-69
2023/03/02 01:35:56;;;;;;;22.08;9.82;;;;;;;;;;5003946;28;20022;-69
2023/03/02 01:38:21;;;;;;;24.48;8.38;;;;;;;;;;4999977;28;20057;-68
2023/03/02 01:40:47;;;;;;;24.83;9.03;;;;;;;;;;4999348;28;20033;-69
2023/03/02 01:43:13;;;;;;;22.13;9.30;;;;;;;;;;4998783;28;20276;-68
2023/03/02 01:45:38;;;;;;;18.45;7.95;;;;;;;;;;5003738;28;20025;-69
2023/03/02 01:48:03;;;;;;;24.45;9.55;;;;;;;;;;5005331;28;20030;-69
2023/03/02 01:50:29;;;;;;;22.23;9.02;;;;;;;;;;5007464;28;20069;-69
2023/03/02 01:52:55;;;;;;;18.83;8.80;;;;;;;;;;5004368;28;20413;-69
2023/03/02 01:55:23;;;;;;;23.10;9.70;;;;;;;;;;5007819;28;20053;-69
2023/03/02 01:57:49;;;;;;;18.15;9.23;;;;;;;;;;5003152;28;20109;-69
2023/03/02 02:00:19;;;;;;;21.52;9.35;;;;;;;;;;5006901;28;20025;-69
2023/03/02 02:02:44;;;;;;;14.27;5.90;;;;;;;;;;5002764;28;20069;-69
2023/03/02 02:05:11;;;;;;;22.58;9.20;;;;;;;;;;5009191;28;20021;-68
2023/03/02 02:07:37;;;;;;;20.73;9.18;;;;;;;;;;5001467;28;20029;-68
2023/03/02 02:10:02;;;;;;;18.70;9.77;;;;;;;;;;4999828;28;20014;-68
2023/03/02 02:12:28;;;;;;;26.17;10.65;;;;;;;;;;5000513;28;20025;-68
2023/03/02 02:14:59;;;;;;;23.52;9.88;;;;;;;;;;5000000;28;20030;-70
2023/03/02 02:17:25;;;;;;;27.20;9.30;;;;;;;;;;5004238;28;20034;-69
2023/03/02 02:20:08;;;;;;;22.33;9.77;;;;;;;;;;5007283;28;20036;-69
2023/03/02 02:22:33;;;;;;;22.27;8.77;;;;;;;;;;5001344;28;20040;-68
2023/03/02 02:25:02;;;;;;;23.88;9.07;;;;;;;;;;4997652;28;20461;-69
2023/03/02 02:27:28;;;;;;;25.73;9.80;;;;;;;;;;5002097;28;20033;-68
2023/03/02 02:29:57;;;;;;;22.15;9.48;;;;;;;;;;5008288;28;20018;-69
2023/03/02 02:32:29;;;;;;;25.50;9.50;;;;;;;;;;5003814;28;20109;-68
2023/03/02 02:34:57;;;;;;;23.23;9.35;;;;;;;;;;5006077;28;20124;-69
2023/03/02 02:37:25;;;;;;;22.83;9.48;;;;;;;;;;4999925;28;20033;-69
2023/03/02 02:39:50;;;;;;;21.77;9.38;;;;;;;;;;5004343;28;20068;-69
2023/03/02 02:42:20;;;;;;;20.45;9.75;;;;;;;;;;5004905;28;20053;-68
2023/03/02 02:44:45;;;;;;;23.92;8.77;;;;;;;;;;5000491;28;20117;-69
2023/03/02 02:47:15;;;;;;;20.23;9.27;;;;;;;;;;5007582;28;20448;-68
2023/03/02 02:49:41;;;;;;;24.75;10.18;;;;;;;;;;5006057;28;20424;-69
2023/03/02 02:52:06;;;;;;;25.67;10.20;;;;;;;;;;5007417;28;20053;-69
2023/03/02 02:54:32;;;;;;;27.08;10.55;;;;;;;;;;5007892;28;20072;-69
2023/03/02 02:56:58;;;;;;;22.30;9.68;;;;;;;;;;5003760;28;20087;-68
2023/03/02 02:59:27;;;;;;;22.13;9.68;;;;;;;;;;5008582;28;20454;-68
2023/03/02 03:01:53;;;;;;;19.77;9.93;;;;;;;;;;5010082;28;20033;-69
2023/03/02 03:04:24;;;;;;;22.58;9.30;;;;;;;;;;5012190;28;20292;-68
2023/03/02 03:06:57;;;;;;;22.70;8.25;;;;;;;;;;5009378;28;20057;-68
2023/03/02 03:09:22;;;;;;;22.55;8.15;;;;;;;;;;5009607;28;20025;-69
2023/03/02 03:11:49;;;;;;;21.92;8.90;;;;;;;;;;5007803;28;20565;-69
2023/03/02 03:14:15;;;;;;;21.83;8.55;;;;;;;;;;5012254;28;20028;-68
2023/03/02 03:16:42;;;;;;;18.42;8.68;;;;;;;;;;5010407;28;20033;-68
2023/03/02 03:19:14;;;;;;;23.92;8.93;;;;;;;;;;5005042;28;20076;-69
2023/03/02 03:21:39;;;;;;;19.48;9.25;;;;;;;;;;5007466;28;20029;-68
2023/03/02 03:24:04;;;;;;;21.50;9.25;;;;;;;;;;5006791;28;20017;-69
2023/03/02 03:26:29;;;;;;;25.48;10.65;;;;;;;;;;5008302;28;20641;-69
2023/03/02 03:28:56;;;;;;;22.15;9.55;;;;;;;;;;5003912;28;20045;-68
2023/03/02 03:31:21;;;;;;;20.65;8.48;;;;;;;;;;5011774;28;20042;-69
2023/03/02 03:33:48;;;;;;;23.13;9.35;;;;;;;;;;5011602;28;20037;-69
2023/03/02 03:36:13;;;;;;;21.38;9.07;;;;;;;;;;5009901;28;20153;-69
2023/03/02 03:38:38;;;;;;;25.50;8.85;;;;;;;;;;5005294;28;20777;-69
2023/03/02 03:41:03;;;;;;;23.83;9.83;;;;;;;;;;5004815;28;20022;-68
2023/03/02 03:43:29;;;;;;;27.10;10.23;;;;;;;;;;5010919;28;20364;-69
2023/03/02 03:45:54;;;;;;;25.38;10.45;;;;;;;;;;5008389;28;20053;-68
2023/03/02 03:48:19;;;;;;;23.73;9.73;;;;;;;;;;5010150;28;20060;-69
2023/03/02 03:50:44;;;;;;;25.60;9.85;;;;;;;;;;5010660;28;20065;-69
2023/03/02 03:53:09;;;;;;;24.37;9.37;;;;;;;;;;5009393;28;20024;-69
2023/03/02 03:55:34;;;;;;;18.65;9.32;;;;;;;;;;5010060;28;20285;-69
2023/03/02 03:58:00;;;;;;;24.27;9.48;;;;;;;;;;5003855;28;20026;-69
2023/03/02 04:00:25;;;;;;;27.67;10.57;;;;;;;;;;5009384;28;20512;-69
2023/03/02 04:02:50;;;;;;;24.25;9.82;;;;;;;;;;5007914;28;20045;-69
2023/03/02 04:05:15;;;;;;;26.98;10.10;;;;;;;;;;5007780;28;20030;-68
2023/03/02 04:07:41;;;;;;;21.10;9.65;;;;;;;;;;5010092;28;20072;-69
2023/03/02 04:10:06;;;;;;;29.13;9.85;;;;;;;;;;5008810;28;20068;-69
2023/03/02 04:12:33;;;;;;;29.35;10.45;;;;;;;;;;5001530;28;20044;-68
2023/03/02 04:14:58;;;;;;;23.52;10.00;;;;;;;;;;5009501;28;20022;-69
2023/03/02 04:17:23;;;;;;;28.48;9.95;;;;;;;;;;5008874;28;20482;-69
2023/03/02 04:19:48;;;;;;;23.85;10.35;;;;;;;;;;5008954;28;20037;-68
2023/03/02 04:22:15;;;;;;;31.08;9.40;;;;;;;;;;5011844;28;20018;-69
2023/03/02 04:24:40;;;;;;;20.48;9.80;;;;;;;;;;5005521;28;20021;-68
2023/03/02 04:27:05;;;;;;;24.38;9.82;;;;;;;;;;5009376;28;20025;-68
2023/03/02 04:29:31;;;;;;;22.77;9.60;;;;;;;;;;5008251;28;20064;-69
2023/03/02 04:31:56;;;;;;;25.48;9.05;;;;;;;;;;5008314;28;20617;-68
2023/03/02 04:34:24;;;;;;;24.35;10.27;;;;;;;;;;5001852;28;20463;-68
2023/03/02 04:36:49;;;;;;;24.13;10.00;;;;;;;;;;5004979;28;20033;-69
2023/03/02 04:39:15;;;;;;;20.63;9.88;;;;;;;;;;5008621;28;20033;-70
2023/03/02 04:41:41;;;;;;;21.50;10.20;;;;;;;;;;5001453;28;20100;-70
2023/03/02 04:44:06;;;;;;;25.75;10.93;;;;;;;;;;5007822;28;20383;-72
2023/03/02 04:46:33;;;;;;;29.80;10.32;;;;;;;;;;5009131;28;20026;-72
2023/03/02 04:48:58;;;;;;;25.65;9.60;;;;;;;;;;5007599;28;20029;-71
2023/03/02 04:51:25;;;;;;;26.88;10.45;;;;;;;;;;5009661;28;20010;-72
2023/03/02 04:53:51;;;;;;;24.67;9.95;;;;;;;;;;5007118;28;20081;-72
2023/03/02 04:56:16;;;;;;;25.75;10.20;;;;;;;;;;5008180;28;20048;-68
2023/03/02 04:58:42;;;;;;;29.05;9.63;;;;;;;;;;5005912;28;20014;-69
2023/03/02 05:01:08;;;;;;;24.75;10.13;;;;;;;;;;5008759;28;20025;-70
2023/03/02 05:03:33;;;;;;;26.75;10.30;;;;;;;;;;5005744;28;20019;-70
2023/03/02 05:05:58;;;;;;;27.08;10.60;;;;;;;;;;5006411;28;20019;-70
2023/03/02 05:08:23;;;;;;;23.45;10.18;;;;;;;;;;5006508;28;20448;-70
2023/03/02 05:10:49;;;;;;;23.83;9.73;;;;;;;;;;5005947;28;20485;-68
2023/03/02 05:13:14;;;;;;;23.80;10.25;;;;;;;;;;5007031;28;20022;-70
2023/03/02 05:15:39;;;;;;;28.90;10.93;;;;;;;;;;5008612;28;20009;-69
2023/03/02 05:18:06;;;;;;;30.80;10.10;;;;;;;;;;5009113;28;20458;-70
2023/03/02 05:20:31;;;;;;;33.20;11.13;;;;;;;;;;5007471;28;20046;-70
2023/03/02 05:22:58;;;;;;;25.58;10.88;;;;;;;;;;5006554;28;20050;-71
2023/03/02 05:25:24;;;;;;;23.65;9.85;;;;;;;;;;5005363;28;20022;-71
2023/03/02 05:27:49;;;;;;;25.95;10.18;;;;;;;;;;5008798;28;20041;-71
2023/03/02 05:30:14;;;;;;;31.55;10.15;;;;;;;;;;5005097;28;20025;-71
2023/03/02 05:32:40;;;;;;;31.30;10.00;;;;;;;;;;5009555;28;20057;-72
2023/03/02 05:35:05;;;;;;;26.30;9.52;;;;;;;;;;5010884;28;20100;-70
2023/03/02 05:37:30;;;;;;;22.63;10.00;;;;;;;;;;5005811;28;20116;-71
2023/03/02 05:39:55;;;;;;;26.13;10.02;;;;;;;;;;5001316;28;20095;-72
2023/03/02 05:42:21;;;;;;;25.80;10.50;;;;;;;;;;5004454;28;20097;-72
2023/03/02 05:44:46;;;;;;;29.45;10.77;;;;;;;;;;5009300;28;20124;-72
2023/03/02 05:47:11;;;;;;;32.63;11.90;;;;;;;;;;5007467;28;20549;-72
2023/03/02 05:49:36;;;;;;;24.88;9.55;;;;;;;;;;5008138;28;20071;-72
2023/03/02 05:52:02;;;;;;;27.65;10.77;;;;;;;;;;5008080;28;20018;-72
2023/03/02 05:54:27;;;;;;;24.70;11.27;;;;;;;;;;5007017;28;20686;-72
2023/03/02 05:56:52;;;;;;;28.95;11.95;;;;;;;;;;5006076;28;20181;-72
2023/03/02 05:59:17;;;;;;;26.67;11.07;;;;;;;;;;5008140;28;20030;-71
2023/03/02 06:01:42;;;;;;;33.77;12.77;;;;;;;;;;5006786;28;20482;-72
2023/03/02 06:04:07;;;;;;;39.08;12.60;;;;;;;;;;5008745;28;20293;-71
2023/03/02 06:06:33;;;;;;;28.02;12.98;;;;;;;;;;5003247;28;20026;-72
2023/03/02 06:08:58;;;;;;;31.15;11.52;;;;;;;;;;5003576;28;20088;-71
2023/03/02 06:11:23;;;;;;;29.58;11.73;;;;;;;;;;5007134;28;20018;-71
2023/03/02 06:13:48;;;;;;;31.70;12.27;;;;;;;;;;5005117;28;20021;-71
2023/03/02 06:16:13;;;;;;;27.65;11.35;;;;;;;;;;5005024;28;20014;-71
2023/03/02 06:18:38;;;;;;;26.17;10.15;;;;;;;;;;5005944;28;20041;-72
2023/03/02 06:21:04;;;;;;;28.08;10.50;;;;;;;;;;5004176;28;20618;-72
2023/03/02 06:23:29;;;;;;;26.27;10.75;;;;;;;;;;5004239;28;20034;-72
2023/03/02 06:25:54;;;;;;;28.98;11.30;;;;;;;;;;5001035;28;20459;-72
2023/03/02 06:28:20;;;;;;;25.10;9.93;;;;;;;;;;5001024;28;20072;-72
2023/03/02 06:30:49;;;;;;;30.42;12.48;;;;;;;;;;4993289;28;20027;-72
2023/03/02 06:33:15;;;;;;;23.20;10.65;;;;;;;;;;5000594;28;20024;-71
2023/03/02 06:35:41;;;;;;;28.45;9.60;;;;;;;;;;5003625;28;20028;-72
2023/03/02 06:38:06;;;;;;;23.85;10.35;;;;;;;;;;5010172;28;20026;-72
2023/03/02 06:40:31;;;;;;;23.15;9.85;;;;;;;;;;5003709;28;20483;-72
2023/03/02 06:42:59;;;;;;;29.73;10.57;;;;;;;;;;5013193;28;20010;-72
2023/03/02 06:45:24;;;;;;;25.65;10.35;;;;;;;;;;5009459;28;20026;-72
2023/03/02 06:47:49;;;;;;;26.50;10.63;;;;;;;;;;5009871;28;20029;-72
2023/03/02 06:50:14;;;;;;;24.63;10.97;;;;;;;;;;5008352;28;20030;-72
2023/03/02 06:52:39;;;;;;;22.65;9.85;;;;;;;;;;5012437;28;20249;-72
2023/03/02 06:55:05;;;;;;;30.77;9.63;;;;;;;;;;5010910;28;20028;-72
2023/03/02 06:57:32;;;;;;;28.63;11.60;;;;;;;;;;5011330;28;20029;-72
2023/03/02 06:59:58;;;;;;;24.77;9.82;;;;;;;;;;5008328;28;20032;-72
2023/03/02 07:02:23;;;;;;;30.42;12.57;;;;;;;;;;5011804;28;20026;-72
2023/03/02 07:04:49;;;;;;;31.67;13.85;;;;;;;;;;5008305;28;20132;-72
2023/03/02 07:07:14;;;;;;;36.00;15.13;;;;;;;;;;5009592;28;20030;-72
2023/03/02 07:09:39;;;;;;;35.42;12.77;;;;;;;;;;5004092;28;20072;-72
2023/03/02 07:12:04;;;;;;;32.45;12.80;;;;;;;;;;5009068;28;20117;-72
2023/03/02 07:14:30;;;;;;;33.78;12.57;;;;;;;;;;5009227;28;20028;-70
2023/03/02 07:16:58;;;;;;;33.63;12.80;;;;;;;;;;5005101;28;20030;-69
2023/03/02 07:19:24;;;;;;;32.80;12.57;;;;;;;;;;5007068;28;20034;-70
2023/03/02 07:21:49;;;;;;;38.60;13.02;;;;;;;;;;5007279;28;20501;-70
2023/03/02 07:24:14;;;;;;;36.13;13.15;;;;;;;;;;5006552;28;20058;-70
2023/03/02 07:26:39;;;;;;;29.70;11.70;;;;;;;;;;5003172;28;20105;-70
2023/03/02 07:29:04;;;;;;;27.30;11.37;;;;;;;;;;5008227;28;20633;-70
2023/03/02 07:31:29;;;;;;;24.97;11.20;;;;;;;;;;5010725;28;20308;-70
2023/03/02 07:33:55;;;;;;;23.67;10.80;;;;;;;;;;5006263;28;20296;-70
2023/03/02 07:36:20;;;;;;;25.88;11.40;;;;;;;;;;5007387;28;20277;-70
2023/03/02 07:38:45;;;;;;;21.70;10.43;;;;;;;;;;5009498;28;20097;-67
2023/03/02 07:41:11;;;;;;;24.35;9.30;;;;;;;;;;5009955;28;20749;-67
2023/03/02 07:43:36;;;;;;;17.73;9.73;;;;;;;;;;5006032;28;20076;-67
2023/03/02 07:46:03;;;;;;;22.63;10.40;;;;;;;;;;5008321;28;20018;-68
2023/03/02 07:48:28;;;;;;;16.80;9.60;;;;;;;;;;5005258;28;20072;-68
2023/03/02 07:51:00;;;;;;;23.88;10.52;;;;;;;;;;5010192;28;20026;-68
2023/03/02 07:53:26;;;;;;;21.95;10.18;;;;;;;;;;5005475;28;20014;-68
2023/03/02 07:55:51;;;;;;;18.77;9.10;;;;;;;;;;5005207;28;20072;-68
2023/03/02 07:58:16;;;;;;;16.35;9.48;;;;;;;;;;5004260;28;20022;-70
2023/03/02 08:00:42;;;;;;;47.37;10.97;;;;;;;;;;5002322;28;20674;-71
2023/03/02 08:03:07;;;;;;;18.98;10.10;;;;;;;;;;4997873;28;20276;-70
2023/03/02 08:05:32;;;;;;;26.30;10.70;;;;;;;;;;5002480;28;20041;-70
2023/03/02 08:07:57;;;;;;;25.60;10.20;;;;;;;;;;5008794;28;20297;-71
2023/03/02 08:10:22;;;;;;;21.33;10.77;;;;;;;;;;5009003;28;20274;-71
2023/03/02 08:12:48;;;;;;;22.03;10.63;;;;;;;;;;5005494;28;20264;-71
2023/03/02 08:15:13;;;;;;;21.73;10.87;;;;;;;;;;5004749;28;20419;-71
2023/03/02 08:17:38;;;;;;;20.93;10.43;;;;;;;;;;5003789;28;20773;-70
2023/03/02 08:20:04;;;;;;;26.30;12.30;;;;;;;;;;5006349;28;20272;-71
2023/03/02 08:22:29;;;;;;;26.58;10.90;;;;;;;;;;5007199;28;20386;-71
2023/03/02 08:24:54;;;;;;;26.40;10.15;;;;;;;;;;5005435;28;20025;-71
2023/03/02 08:27:19;;;;;;;25.73;10.55;;;;;;;;;;5007473;28;20037;-71
2023/03/02 08:29:45;;;;;;;31.93;10.27;;;;;;;;;;5009811;28;20534;-71
2023/03/02 08:32:10;;;;;;;21.25;9.52;;;;;;;;;;5010222;28;20277;-71
2023/03/02 08:34:35;;;;;;;25.50;8.63;;;;;;;;;;5002442;28;20026;-71
2023/03/02 08:37:00;;;;;;;17.73;8.27;;;;;;;;;;5005426;28;20257;-71
2023/03/02 08:39:29;;;;;;;17.97;8.53;;;;;;;;;;5006718;28;20788;-71
2023/03/02 08:41:54;;;;;;;27.42;9.45;;;;;;;;;;5007358;28;20277;-71
2023/03/02 08:44:22;;;;;;;14.68;8.27;;;;;;;;;;5009078;28;20028;-71
2023/03/02 08:46:48;;;;;;;18.90;7.63;;;;;;;;;;5008959;28;20467;-71
2023/03/02 08:49:13;;;;;;;14.32;7.93;;;;;;;;;;5008197;28;20025;-71
2023/03/02 08:51:39;;;;;;;16.23;7.95;;;;;;;;;;5004778;28;20028;-71
2023/03/02 08:54:04;;;;;;;17.85;8.95;;;;;;;;;;5006572;28;20049;-69
2023/03/02 08:56:30;;;;;;;32.60;9.30;;;;;;;;;;5006896;28;20102;-69
2023/03/02 08:59:00;;;;;;;16.40;8.20;;;;;;;;;;5003726;28;20308;-69
2023/03/02 09:01:29;;;;;;;13.90;8.25;;;;;;;;;;5006823;28;20057;-69
2023/03/02 09:03:56;;;;;;;16.48;7.93;;;;;;;;;;5007283;28;20030;-69
2023/03/02 09:06:22;;;;;;;19.05;8.35;;;;;;;;;;5007854;28;20554;-69
2023/03/02 09:08:47;;;;;;;21.92;8.93;;;;;;;;;;5009890;28;20101;-69
2023/03/02 09:11:13;;;;;;;17.38;9.32;;;;;;;;;;5003651;28;20068;-71
2023/03/02 09:13:38;;;;;;;17.23;7.88;;;;;;;;;;5003629;28;20509;-72
2023/03/02 09:16:04;;;;;;;16.95;8.75;;;;;;;;;;5005300;28;20383;-71
2023/03/02 09:18:29;;;;;;;18.90;8.73;;;;;;;;;;5002344;28;20030;-71
2023/03/02 09:20:55;;;;;;;16.75;8.75;;;;;;;;;;5005826;28;20026;-71
2023/03/02 09:23:21;;;;;;;13.55;7.68;;;;;;;;;;5004027;28;20033;-72
2023/03/02 09:25:47;;;;;;;19.15;8.95;;;;;;;;;;5004659;28;20030;-71
2023/03/02 09:28:13;;;;;;;18.02;8.93;;;;;;;;;;5008626;28;20038;-71
2023/03/02 09:30:38;;;;;;;16.85;9.02;;;;;;;;;;5008797;28;20573;-71
2023/03/02 09:33:03;;;;;;;12.13;7.53;;;;;;;;;;5007040;28;20022;-71
2023/03/02 09:35:28;;;;;;;14.00;8.33;;;;;;;;;;5008875;28;20637;-71
2023/03/02 09:37:54;;;;;;;15.53;8.47;;;;;;;;;;5006231;28;20281;-71
2023/03/02 09:40:20;;;;;;;16.42;8.88;;;;;;;;;;5008511;28;20264;-71
2023/03/02 09:42:46;;;;;;;14.63;9.10;;;;;;;;;;5007778;28;20030;-71
2023/03/02 09:45:29;;;;;;;15.07;8.30;;;;;;;;;;5007983;28;20045;-71
2023/03/02 09:48:06;;;;;;;13.63;8.27;;;;;;;;;;5004784;28;20288;-71
2023/03/02 09:50:33;;;;;;;22.77;9.13;;;;;;;;;;5006665;28;20109;-71
2023/03/02 09:53:01;;;;;;;18.00;9.05;;;;;;;;;;5006502;28;20068;-71
2023/03/02 09:55:27;;;;;;;17.98;8.55;;;;;;;;;;5007918;28;20025;-71
2023/03/02 09:57:53;;;;;;;15.95;8.23;;;;;;;;;;5004519;28;20475;-71
2023/03/02 10:00:26;;;;;;;18.67;9.25;;;;;;;;;;5009485;28;20510;-71
2023/03/02 10:02:59;;;;;;;19.38;9.07;;;;;;;;;;5002190;28;20064;-71
2023/03/02 10:05:29;;;;;;;20.23;9.43;;;;;;;;;;5007317;28;20044;-71
2023/03/02 10:07:55;;;;;;;;;;;;;;;;;;5009410;28;20022;-71
2023/03/02 10:10:22;;;;;;;17.17;9.40;;;;;;;;;;5008989;28;19916;-71
2023/03/02 10:12:59;;;;;;;18.58;9.23;;;;;;;;;;5006770;28;20072;-71
2023/03/02 10:15:29;;;;;;;18.35;9.07;;;;;;;;;;5011056;28;20018;-71
2023/03/02 10:17:59;;;;;;;21.05;9.35;;;;;;;;;;5008018;28;20026;-71
2023/03/02 10:20:36;;;;;;;14.65;8.40;;;;;;;;;;5008710;28;20083;-71
2023/03/02 10:23:25;;;;;;;21.70;8.50;;;;;;;;;;5009096;28;20395;-71
2023/03/02 10:25:59;;;;;;;20.90;9.15;;;;;;;;;;5008644;28;20116;-71
2023/03/02 10:28:27;;;;;;;14.65;8.13;;;;;;;;;;5006959;28;20368;-72
2023/03/02 10:30:59;;;;;;;18.20;8.50;;;;;;;;;;5010253;28;20467;-72
2023/03/02 10:33:25;;;;;;;17.17;8.85;;;;;;;;;;5009228;28;20022;-72
2023/03/02 10:35:51;;;;;;;16.08;8.65;;;;;;;;;;5004229;28;21811;-71
2023/03/02 10:38:23;;;;;;;18.38;9.10;;;;;;;;;;5007538;28;20058;-71
2023/03/02 10:41:00;;;;;;;19.70;9.13;;;;;;;;;;5003712;28;20045;-71
2023/03/02 10:43:28;;;;;;;18.88;8.15;;;;;;;;;;5010618;28;20025;-71
2023/03/02 10:46:07;;;;;;;17.83;8.40;;;;;;;;;;5006215;28;20049;-72
2023/03/02 10:48:44;;;;;;;17.05;8.50;;;;;;;;;;5009364;28;20634;-72
2023/03/02 10:51:18;;;;;;;17.83;8.98;;;;;;;;;;5012966;28;20475;-72
2023/03/02 10:53:43;;;;;;;16.35;8.32;;;;;;;;;;5006032;28;20014;-72
2023/03/02 10:56:17;;;;;;;15.30;8.32;;;;;;;;;;5006228;28;20120;-72
2023/03/02 10:58:42;;;;;;;18.27;8.13;;;;;;;;;;5006032;28;20501;-72
2023/03/02 11:01:15;;;;;;;18.77;8.30;;;;;;;;;;5011905;28;20120;-72
2023/03/02 11:03:40;;;;;;;15.95;8.80;;;;;;;;;;5007884;28;20654;-72
2023/03/02 11:06:19;;;;;;;21.17;8.07;;;;;;;;;;5009576;28;20022;-71
2023/03/02 11:08:44;;;;;;;24.90;8.82;;;;;;;;;;5000458;28;20281;-72
2023/03/02 11:11:20;;;;;;;15.40;7.40;;;;;;;;;;5010672;28;20095;-72
2023/03/02 11:13:45;;;;;;;15.73;8.30;;;;;;;;;;5009573;28;20304;-72
2023/03/02 11:16:16;;;;;;;18.67;7.80;;;;;;;;;;5008299;28;20055;-72
2023/03/02 11:18:45;;;;;;;19.48;9.43;;;;;;;;;;5005581;28;20287;-72
2023/03/02 11:21:34;;;;;;;23.13;10.63;;;;;;;;;;5006190;28;20022;-72
2023/03/02 11:24:11;;;;;;;18.73;8.50;;;;;;;;;;5009225;28;20033;-72
2023/03/02 11:26:38;;;;;;;17.77;8.88;;;;;;;;;;5005710;28;20467;-70
2023/03/02 11:29:12;;;;;;;13.63;7.90;;;;;;;;;;5009345;28;20615;-71
2023/03/02 11:31:49;;;;;;;16.92;9.05;;;;;;;;;;5010681;28;20046;-72
2023/03/02 11:34:53;;;;;;;21.02;9.45;;;;;;;;;;5008745;28;20028;-72
2023/03/02 11:37:22;;;;;;;22.05;8.98;;;;;;;;;;4973123;28;20138;-72
2023/03/02 11:39:47;;;;;;;21.05;9.02;;;;;;;;;;4987002;28;20084;-72
2023/03/02 11:42:20;;;;;;;18.93;8.83;;;;;;;;;;4999230;28;20042;-72
2023/03/02 11:44:46;;;;;;;17.63;8.60;;;;;;;;;;5007486;28;20018;-72
2023/03/02 11:47:11;;;;;;;16.00;8.43;;;;;;;;;;5011843;28;20025;-72
2023/03/02 11:49:47;;;;;;;16.42;8.15;;;;;;;;;;5007771;28;20041;-72
2023/03/02 11:52:16;;;;;;;16.70;8.07;;;;;;;;;;5008336;28;20072;-72
2023/03/02 11:54:46;;;;;;;18.77;8.55;;;;;;;;;;5010126;28;20486;-72
2023/03/02 11:57:11;;;;;;;;;;;;;;;;;;5005659;28;20049;-72
2023/03/02 11:59:37;;;;;;;20.27;8.20;;;;;;;;;;5003638;28;19933;-72
2023/03/02 12:02:02;;;;;;;17.83;7.95;;;;;;;;;;5007616;28;20026;-72
2023/03/02 12:04:31;;;;;;;15.40;8.75;;;;;;;;;;5008594;28;20557;-72
2023/03/02 12:06:56;;;;;;;19.38;8.75;;;;;;;;;;5008778;28;20042;-72
2023/03/02 12:09:22;;;;;;;23.55;9.45;;;;;;;;;;5008356;28;20533;-72
2023/03/02 12:11:52;;;;;;;13.60;8.03;;;;;;;;;;5007148;28;20065;-72
2023/03/02 12:14:25;;;;;;;13.98;7.50;;;;;;;;;;5008267;28;20026;-72
2023/03/02 12:17:01;;;;;;;19.83;8.18;;;;;;;;;;5005276;28;20529;-72
2023/03/02 12:19:28;;;;;;;19.13;8.70;;;;;;;;;;5006956;28;20030;-71
2023/03/02 12:21:59;;;;;;;16.27;8.52;;;;;;;;;;5007027;28;20022;-71
2023/03/02 12:24:28;;;;;;;17.80;7.72;;;;;;;;;;5005440;28;20021;-71
2023/03/02 12:27:02;;;;;;;17.30;7.28;;;;;;;;;;4998886;28;20018;-71
2023/03/02 12:29:37;;;;;;;13.88;7.45;;;;;;;;;;5003968;28;20018;-71
2023/03/02 12:32:09;;;;;;;15.60;7.60;;;;;;;;;;5001374;28;20018;-71
2023/03/02 12:34:36;;;;;;;14.15;7.10;;;;;;;;;;5001102;28;20034;-72
2023/03/02 12:37:22;;;;;;;20.45;8.10;;;;;;;;;;5004808;28;20018;-72
2023/03/02 12:40:13;;;;;;;15.88;7.32;;;;;;;;;;5002676;28;20085;-72
2023/03/02 12:42:50;;;;;;;20.73;7.57;;;;;;;;;;5003659;28;20043;-71
2023/03/02 12:45:24;;;;;;;17.60;7.90;;;;;;;;;;5000051;28;20028;-71
2023/03/02 12:47:51;;;;;;;15.15;7.93;;;;;;;;;;5003496;28;20030;-71
2023/03/02 12:50:18;;;;;;;15.82;7.45;;;;;;;;;;5003207;28;20109;-72
2023/03/02 12:52:43;;;;;;;15.23;7.53;;;;;;;;;;5001872;28;20025;-72
2023/03/02 12:55:09;;;;;;;10.98;5.70;;;;;;;;;;5002235;28;20084;-72
2023/03/02 12:57:45;;;;;;;12.55;5.95;;;;;;;;;;5003634;28;20107;-72
2023/03/02 13:00:14;;;;;;;13.88;5.72;;;;;;;;;;5004084;28;20108;-72
2023/03/02 13:02:44;;;;;;;16.80;7.00;;;;;;;;;;4998557;28;20099;-72
2023/03/02 13:05:15;;;;;;;20.50;7.00;;;;;;;;;;5005629;28;20034;-72
2023/03/02 13:07:50;;;;;;;16.75;6.70;;;;;;;;;;5007692;28;20030;-72
2023/03/02 13:10:25;;;;;;;11.50;6.35;;;;;;;;;;5008442;28;20025;-72
2023/03/02 13:12:51;;;;;;;14.00;6.38;;;;;;;;;;4998551;28;20036;-72
2023/03/02 13:15:16;;;;;;;14.30;6.53;;;;;;;;;;5004639;28;20022;-72
2023/03/02 13:17:41;;;;;;;24.88;6.57;;;;;;;;;;5005372;28;20057;-72
2023/03/02 13:20:09;;;;;;;15.80;7.30;;;;;;;;;;5003309;28;20477;-72
2023/03/02 13:22:35;;;;;;;13.77;7.30;;;;;;;;;;5006979;28;20061;-72
2023/03/02 13:25:03;;;;;;;12.23;6.18;;;;;;;;;;5003232;28;20054;-72
2023/03/02 13:27:29;;;;;;;13.98;5.90;;;;;;;;;;5005848;28;20030;-72
2023/03/02 13:29:55;;;;;;;34.10;7.65;;;;;;;;;;5004026;28;20029;-72
2023/03/02 13:32:20;;;;;;;12.48;6.35;;;;;;;;;;5003526;28;20386;-72
2023/03/02 13:34:50;;;;;;;12.00;6.10;;;;;;;;;;5001516;28;20026;-72
2023/03/02 13:37:18;;;;;;;18.00;6.88;;;;;;;;;;5005071;28;20164;-72
2023/03/02 13:39:52;;;;;;;17.98;6.25;;;;;;;;;;5003441;28;20045;-72
2023/03/02 13:42:24;;;;;;;14.77;6.60;;;;;;;;;;5002383;28;20033;-72
2023/03/02 13:44:49;;;;;;;15.32;6.32;;;;;;;;;;5002836;28;20029;-72
2023/03/02 13:47:22;;;;;;;10.23;5.72;;;;;;;;;;5002493;28;20022;-72
2023/03/02 13:49:47;;;;;;;13.40;5.60;;;;;;;;;;5004339;28;20025;-71
2023/03/02 13:52:16;;;;;;;15.63;6.93;;;;;;;;;;5004531;28;20039;-72
2023/03/02 13:54:43;;;;;;;12.45;6.45;;;;;;;;;;5001046;28;20686;-72
2023/03/02 13:57:27;;;;;;;16.35;6.65;;;;;;;;;;5000380;28;20088;-72
2023/03/02 13:59:52;;;;;;;10.77;5.65;;;;;;;;;;5004021;28;20022;-72
2023/03/02 14:02:25;;;;;;;16.42;5.75;;;;;;;;;;5004324;28;20018;-71
2023/03/02 14:04:50;;;;;;;17.75;5.82;;;;;;;;;;5002801;28;20025;-71
2023/03/02 14:07:16;;;;;;;14.60;6.53;;;;;;;;;;4999821;28;20581;-71
2023/03/02 14:09:42;;;;;;;14.63;6.30;;;;;;;;;;4999577;28;20018;-72
2023/03/02 14:12:07;;;;;;;11.60;5.47;;;;;;;;;;5000992;28;20018;-71
2023/03/02 14:14:35;;;;;;;11.70;6.32;;;;;;;;;;4997902;28;20022;-71
2023/03/02 14:17:00;;;;;;;11.20;5.18;;;;;;;;;;5002082;28;20029;-71
2023/03/02 14:19:25;;;;;;;10.93;5.87;;;;;;;;;;5002385;28;20029;-71
2023/03/02 14:21:50;;;;;;;16.23;5.80;;;;;;;;;;5004261;28;20750;-71
2023/03/02 14:24:15;;;;;;;16.97;5.53;;;;;;;;;;5003767;28;20029;-71
2023/03/02 14:26:46;;;;;;;9.60;5.20;;;;;;;;;;4996298;28;20348;-71